Sunnyvale, CA (94085)

12:39 PM PDT on August 29, 2015 (GMT -0700)
Heritage District | | Change Station
CLOSE
Current Station
Personal Weather Station
Location: Sunnyvale, CA
Elevation: 105 ft
Nearby Weather Stations

Elev 105 ft 37.37 °N, 122.03 °W | Updated 7 minutes ago

Overcast
Overcast
77.5 °F
Feels Like 79 °F
N
3.8
Wind Variable Wind from SE
Gusts 7.6 mph

Today
High -- | Low -- °F
--% Chance of Precip.
Yesterday
High -- | Low -- °F
Precip. -- in
6:35 AM 7:41 PM
Full, 100% visible
Pressure 30.01 in
Visibility 10.0 miles
Clouds Few 2400 ft
Overcast 3900 ft
Heat Index 79 °F
Dew Point 68 °F
Humidity 72%
Rainfall 0.00 in
Snow Depth Not available.
UV 3 out of 12
Pollen 6.20 out of 12
Air Quality Not available.
Flu Activity Not available.
METAR KNUQ 291856Z 33005KT 10SM FEW024 OVC039 24/18 A3001 RMK AO2 RAB21E30 SLP163 P0000 T02390183
Pressure 30.01 in
Visibility 10.0 miles
Clouds Few 2400 ft
Overcast 3900 ft
Heat Index 79 °F
Dew Point 68 °F
Humidity 72%
Rainfall 0.00 in
Snow Depth Not available.
UV 3 out of 12
Pollen 6.20 out of 12
Air Quality Not available.
Flu Activity Not available.
METAR KNUQ 291856Z 33005KT 10SM FEW024 OVC039 24/18 A3001 RMK AO2 RAB21E30 SLP163 P0000 T02390183

10-Day Weather Forecast

×

Almanac

Astronomy

Aug. 29, 2015 Rise Set
Actual Time
Civil Twilight
Nautical Twilight
Astronomical Twilight
Moon
Length of Visible Light
Length of Day
Tomorrow will be .
, % of the Moon is Illuminated

Today's Extremes

State Highs State Lows

Community

WunderPhotos

Upload Photos

1,850,782 photos uploaded!

WunderBlogs® & News

Nearby

Air Quality

  Air Quality AQ Index Pollutant
Not available.

Snow Depth

Station Depth Elevation

Earthquake Activity

City Distance Mag. Time & Date
Minimum magnitude displayed is 2.5.

Coastal Water Temperatures

Place Temperature

Stations

Nearby Weather Stations

Station Location Temp. Windchill Dew Point Humidity Wind Precip. Elev Updated Type